Time;durP1;ratioP1;P1;durP2;ratioP2;P2;SDS_P1;SDS_P2;PMS_P1;PMS_P2;Temp;Humidity;BMP_temperature;BMP_pressure;BME280_temperature;BME280_humidity;BME280_pressure;Samples;Min_cycle;Max_cycle;Signal;HPM_P1;HPM_P2
2023/11/05 00:01:59;;;;;;;12.75;2.47;;;;;;;13.99;70.12;97091.16;5047998;28;20041;-72
2023/11/05 00:04:30;;;;;;;14.00;2.72;;;;;;;14.01;69.65;97083.22;5049383;28;20079;-72
2023/11/05 00:06:55;;;;;;;12.90;2.72;;;;;;;13.97;69.58;97085.16;5049821;28;20052;-72
2023/11/05 00:09:21;;;;;;;15.52;2.70;;;;;;;13.82;69.49;97079.09;5049309;28;20033;-74
2023/11/05 00:11:46;;;;;;;15.63;3.05;;;;;;;13.87;69.62;97081.41;5048094;28;20508;-72
2023/11/05 00:14:15;;;;;;;16.88;2.78;;;;;;;13.75;69.29;97074.28;5048957;28;20035;-73
2023/11/05 00:16:40;;;;;;;12.18;2.85;;;;;;;13.80;69.62;97073.09;5049357;28;20116;-73
2023/11/05 00:19:06;;;;;;;10.90;2.60;;;;;;;13.74;69.39;97068.22;5050401;28;20464;-73
2023/11/05 00:21:31;;;;;;;13.85;2.78;;;;;;;13.59;70.40;97065.69;5049228;28;20621;-72
2023/11/05 00:24:03;;;;;;;11.68;2.50;;;;;;;13.62;70.06;97060.25;5050181;28;20115;-73
2023/11/05 00:26:28;;;;;;;14.98;2.63;;;;;;;13.35;71.14;97060.13;5048969;28;20684;-73
2023/11/05 00:28:56;;;;;;;13.43;2.58;;;;;;;13.56;70.52;97056.22;5049590;28;20033;-72
2023/11/05 00:31:22;;;;;;;12.60;2.53;;;;;;;13.45;70.77;97056.03;5024630;28;20037;-73
2023/11/05 00:33:50;;;;;;;8.00;1.92;;;;;;;13.50;70.04;97056.59;5034223;28;20705;-72
2023/11/05 00:36:18;;;;;;;12.15;2.50;;;;;;;13.40;70.93;97053.69;5034196;28;20049;-73
2023/11/05 00:38:44;;;;;;;11.57;2.38;;;;;;;13.52;70.80;97051.28;5033550;28;20391;-73
2023/11/05 00:41:09;;;;;;;12.27;2.22;;;;;;;13.56;70.81;97048.38;5032143;28;20041;-72
2023/11/05 00:43:34;;;;;;;11.43;2.38;;;;;;;13.56;70.88;97039.69;5033616;28;20040;-73
2023/11/05 00:46:00;;;;;;;9.55;2.13;;;;;;;13.61;71.14;97042.84;5033010;28;20417;-73
2023/11/05 00:48:25;;;;;;;12.43;2.20;;;;;;;13.56;71.56;97045.75;5034514;28;20045;-72
2023/11/05 00:50:50;;;;;;;15.45;2.10;;;;;;;13.62;71.48;97037.53;5033283;28;20560;-72
2023/11/05 00:53:15;;;;;;;7.60;1.98;;;;;;;13.53;72.32;97051.19;5034347;28;20124;-72
2023/11/05 00:55:44;;;;;;;10.73;2.40;;;;;;;13.77;71.42;97044.47;5035012;28;20030;-72
2023/11/05 00:58:09;;;;;;;11.48;2.20;;;;;;;13.69;71.73;97045.88;5033254;28;20037;-72
2023/11/05 01:00:35;;;;;;;11.55;2.30;;;;;;;13.86;71.43;97042.22;5032470;28;20045;-72
2023/11/05 01:03:06;;;;;;;16.33;2.13;;;;;;;13.97;71.17;97047.66;5031331;28;20100;-73
2023/11/05 01:05:40;;;;;;;10.68;1.85;;;;;;;13.92;71.17;97047.94;5032827;28;20041;-73
2023/11/05 01:08:06;;;;;;;;;;;;;;;14.00;71.29;97047.47;5033389;28;20033;-73
2023/11/05 01:10:31;;;;;;;11.75;1.92;;;;;;;14.13;71.10;97044.03;5032571;28;19963;-73
2023/11/05 01:12:56;;;;;;;9.85;2.10;;;;;;;14.14;71.08;97048.31;5034341;28;20030;-72
2023/11/05 01:15:22;;;;;;;13.32;2.45;;;;;;;14.12;70.60;97049.34;5024859;28;20114;-72
2023/11/05 01:17:48;;;;;;;12.13;2.33;;;;;;;14.06;71.46;97049.72;5047745;28;20407;-72
2023/11/05 01:20:24;;;;;;;9.27;2.30;;;;;;;14.15;71.32;97043.91;5032348;28;20045;-72
2023/11/05 01:22:50;;;;;;;9.73;2.00;;;;;;;14.26;70.68;97045.88;5030635;28;20049;-73
2023/11/05 01:25:22;;;;;;;9.27;2.05;;;;;;;14.24;70.99;97035.50;5030706;28;20042;-75
2023/11/05 01:27:47;;;;;;;6.43;1.83;;;;;;;14.29;70.87;97025.56;5032282;28;20037;-73
2023/11/05 01:30:13;;;;;;;10.00;1.90;;;;;;;14.27;70.58;97030.06;5031129;28;20344;-72
2023/11/05 01:32:38;;;;;;;12.27;2.13;;;;;;;14.22;70.23;97027.72;5031782;28;20048;-72
2023/11/05 01:35:16;;;;;;;12.05;1.90;;;;;;;14.26;70.22;97022.31;5032310;28;20206;-73
2023/11/05 01:37:41;;;;;;;12.77;1.98;;;;;;;14.18;69.84;97028.00;5025549;28;20040;-73
2023/11/05 01:40:10;;;;;;;8.50;2.08;;;;;;;14.05;70.55;97027.91;5044681;28;20037;-73
2023/11/05 01:42:42;;;;;;;10.75;1.90;;;;;;;14.14;70.25;97022.13;5030923;28;20046;-73
2023/11/05 01:45:13;;;;;;;12.20;2.50;;;;;;;14.08;70.12;97034.75;5032036;28;20049;-73
2023/11/05 01:47:44;;;;;;;12.55;1.95;;;;;;;14.03;70.43;97027.16;5031522;28;20064;-73
2023/11/05 01:50:11;;;;;;;8.65;1.90;;;;;;;14.03;70.55;97032.41;5031887;28;20046;-73
2023/11/05 01:52:36;;;;;;;8.80;1.98;;;;;;;14.15;70.31;97030.81;5029653;28;20037;-73
2023/11/05 01:55:03;;;;;;;12.55;1.80;;;;;;;14.02;71.04;97027.28;5031965;28;20030;-73
2023/11/05 01:57:28;;;;;;;10.60;2.22;;;;;;;14.06;70.40;97032.22;5031723;28;20037;-73
2023/11/05 01:59:54;;;;;;;11.93;1.90;;;;;;;14.08;70.23;97030.38;5032454;28;20044;-73
2023/11/05 02:02:24;;;;;;;9.40;1.80;;;;;;;14.04;70.44;97026.22;5030250;28;20056;-73
2023/11/05 02:04:50;;;;;;;13.00;1.88;;;;;;;14.03;69.98;97029.78;5031568;28;20034;-71
2023/11/05 02:07:21;;;;;;;7.45;1.77;;;;;;;13.94;70.87;97025.13;5030008;28;20041;-74
2023/11/05 02:10:03;;;;;;;9.68;1.90;;;;;;;13.96;71.33;97025.03;5030925;28;20045;-72
2023/11/05 02:12:29;;;;;;;10.65;2.15;;;;;;;14.04;71.07;97018.38;5030260;28;20441;-73
2023/11/05 02:14:57;;;;;;;9.65;2.15;;;;;;;14.07;71.06;97023.44;5032018;28;20033;-72
2023/11/05 02:17:25;;;;;;;7.85;1.77;;;;;;;14.00;71.90;97022.13;5029158;28;20037;-73
2023/11/05 02:19:52;;;;;;;8.18;1.80;;;;;;;14.26;70.92;97017.91;5031434;28;20040;-72
2023/11/05 02:24:53;;;;;;;7.53;1.80;;;;;;;14.27;70.22;97024.00;5007945;28;20046;-44
2023/11/05 02:27:19;;;;;;;11.18;2.13;;;;;;;14.37;70.34;97017.22;5009127;28;20563;-46
2023/11/05 02:29:47;;;;;;;9.65;1.70;;;;;;;14.40;70.13;97022.28;5011201;28;20040;-45
2023/11/05 02:32:12;;;;;;;10.63;1.77;;;;;;;14.43;70.11;97020.34;5009800;28;20033;-48
2023/11/05 02:34:37;;;;;;;8.30;1.67;;;;;;;14.41;69.90;97019.56;5008757;28;20466;-48
2023/11/05 02:37:03;;;;;;;9.52;1.80;;;;;;;14.28;70.60;97021.25;5010958;28;20527;-46
2023/11/05 02:39:28;;;;;;;9.25;1.98;;;;;;;14.36;69.97;97019.00;5010207;28;20045;-46
2023/11/05 02:41:53;;;;;;;9.02;1.92;;;;;;;14.10;71.29;97025.84;5010883;28;20130;-47
2023/11/05 02:44:19;;;;;;;9.15;1.90;;;;;;;14.30;70.73;97023.78;5010334;28;20462;-46
2023/11/05 02:46:44;;;;;;;8.95;1.83;;;;;;;14.29;71.02;97009.00;5010509;28;20042;-44
2023/11/05 02:49:12;;;;;;;7.13;1.70;;;;;;;14.31;70.63;97020.22;5010941;28;20068;-46
2023/11/05 02:51:37;;;;;;;7.90;1.77;;;;;;;14.32;70.79;97011.44;5010508;28;20037;-48
2023/11/05 02:54:03;;;;;;;8.82;1.92;;;;;;;14.06;71.95;97011.28;5010242;28;20030;-46
2023/11/05 02:56:28;;;;;;;6.90;1.73;;;;;;;14.29;71.42;97009.84;5010260;28;20459;-47
2023/11/05 02:58:53;;;;;;;8.07;1.70;;;;;;;14.29;71.52;97003.75;5010443;28;20042;-50
2023/11/05 03:01:29;;;;;;;9.00;1.92;;;;;;;14.21;71.77;97007.69;5010100;28;20042;-46
2023/11/05 03:03:55;;;;;;;5.50;1.60;;;;;;;14.35;71.27;97006.00;5009286;28;20408;-46
2023/11/05 03:06:21;;;;;;;8.00;2.03;;;;;;;14.31;71.60;97001.88;5009908;28;20103;-46
2023/11/05 03:08:46;;;;;;;6.00;1.98;;;;;;;14.11;72.44;97003.97;5010713;28;20484;-48
2023/11/05 03:11:11;;;;;;;7.55;1.88;;;;;;;14.22;72.31;97001.50;5010233;28;20030;-45
2023/11/05 03:13:36;;;;;;;6.93;1.90;;;;;;;14.27;72.14;96998.63;5010321;28;20030;-46
2023/11/05 03:16:03;;;;;;;7.45;2.00;;;;;;;14.37;71.68;97002.38;5010480;28;20116;-46
2023/11/05 03:18:29;;;;;;;6.70;2.40;;;;;;;14.31;72.08;96996.66;5010040;28;20038;-46
2023/11/05 03:20:54;;;;;;;8.68;2.10;;;;;;;14.27;72.33;96997.78;5008866;28;20500;-46
2023/11/05 03:23:20;;;;;;;7.88;2.13;;;;;;;14.35;71.90;97003.38;5007700;28;20042;-45
2023/11/05 03:25:45;;;;;;;6.75;1.95;;;;;;;14.34;72.00;96996.44;5010401;28;20480;-48
2023/11/05 03:28:10;;;;;;;7.25;2.25;;;;;;;14.31;72.18;96997.50;5010163;28;20030;-45
2023/11/05 03:30:36;;;;;;;7.05;2.38;;;;;;;14.31;72.07;97000.13;5009962;28;20753;-44
2023/11/05 03:33:04;;;;;;;6.57;2.17;;;;;;;14.36;71.88;97013.75;5011040;28;20142;-52
2023/11/05 03:35:30;;;;;;;8.77;2.58;;;;;;;14.21;72.64;97002.44;5010387;28;20033;-45
2023/11/05 03:37:55;;;;;;;7.93;2.42;;;;;;;14.36;72.39;97005.06;5010614;28;20026;-49
2023/11/05 03:40:20;;;;;;;6.57;2.50;;;;;;;14.37;72.17;97007.63;5010663;28;20046;-45
2023/11/05 03:42:46;;;;;;;7.60;2.40;;;;;;;14.36;72.37;97002.44;5010415;28;20041;-46
2023/11/05 03:45:11;;;;;;;8.13;2.35;;;;;;;14.36;72.61;97007.66;5010017;28;20038;-49
2023/11/05 03:47:36;;;;;;;10.70;2.80;;;;;;;14.39;72.13;97012.78;5009446;28;20026;-45
2023/11/05 03:50:02;;;;;;;7.22;2.40;;;;;;;14.40;72.22;97010.03;5010101;28;20052;-47
2023/11/05 03:52:27;;;;;;;6.45;2.28;;;;;;;14.51;71.80;97012.84;5009534;28;20042;-45
2023/11/05 03:54:55;;;;;;;8.95;2.50;;;;;;;14.48;71.86;97014.78;5010423;28;20624;-45
2023/11/05 03:57:20;;;;;;;5.60;2.40;;;;;;;14.38;71.94;97009.31;5009858;28;20061;-43
2023/11/05 03:59:45;;;;;;;6.65;2.78;;;;;;;14.29;72.64;97011.63;5010308;28;20077;-47
2023/11/05 04:02:10;;;;;;;8.20;2.70;;;;;;;14.37;72.49;97010.25;5010172;28;20041;-45
2023/11/05 04:04:36;;;;;;;8.13;2.50;;;;;;;14.36;72.48;97008.50;5009666;28;20519;-44
2023/11/05 04:07:05;;;;;;;7.47;2.67;;;;;;;14.36;72.42;97010.28;5012190;28;20092;-45
2023/11/05 04:09:30;;;;;;;7.72;2.75;;;;;;;14.38;72.34;97013.69;5014557;28;20046;-47
2023/11/05 04:11:56;;;;;;;7.40;2.50;;;;;;;14.38;72.41;97021.56;5015492;28;20038;-46
2023/11/05 04:14:21;;;;;;;10.80;2.60;;;;;;;14.45;72.19;97020.25;5016151;28;20030;-46
2023/11/05 04:16:46;;;;;;;8.23;2.60;;;;;;;14.31;72.81;97026.31;5014376;28;20042;-44
2023/11/05 04:19:14;;;;;;;6.88;2.30;;;;;;;14.41;72.43;97019.56;5012746;28;20076;-46
2023/11/05 04:21:39;;;;;;;7.05;2.30;;;;;;;14.45;72.42;97026.31;5013540;28;20396;-47
2023/11/05 04:24:05;;;;;;;6.38;2.22;;;;;;;14.45;72.66;97028.09;5013700;28;20068;-44
2023/11/05 04:26:30;;;;;;;8.52;2.65;;;;;;;14.37;72.83;97023.34;5013376;28;20038;-44
2023/11/05 04:28:56;;;;;;;10.25;2.58;;;;;;;14.34;73.07;97020.88;5015685;28;20038;-44
2023/11/05 04:31:22;;;;;;;8.07;2.78;;;;;;;14.22;73.38;97026.88;5013891;28;20038;-46
2023/11/05 04:33:48;;;;;;;9.45;2.45;;;;;;;14.42;72.91;97023.88;5013758;28;20030;-47
2023/11/05 04:36:13;;;;;;;7.75;2.47;;;;;;;14.49;72.72;97029.59;5013349;28;20037;-46
2023/11/05 04:38:39;;;;;;;9.05;2.75;;;;;;;14.36;73.16;97032.09;5012704;28;20121;-45
2023/11/05 04:41:05;;;;;;;8.45;2.30;;;;;;;14.51;72.88;97028.56;5013444;28;20069;-46
2023/11/05 04:43:30;;;;;;;8.07;2.70;;;;;;;14.56;72.49;97025.63;5016768;28;20034;-45
2023/11/05 04:45:58;;;;;;;9.20;2.72;;;;;;;14.62;72.53;97027.88;5018357;28;20426;-45
2023/11/05 04:48:23;;;;;;;11.18;2.70;;;;;;;14.68;72.23;97024.00;5017216;28;20125;-47
2023/11/05 04:50:48;;;;;;;10.80;2.60;;;;;;;14.65;72.34;97026.81;5016634;28;20061;-46
2023/11/05 04:53:14;;;;;;;8.38;2.88;;;;;;;14.70;72.38;97024.75;5013571;28;20058;-45
2023/11/05 04:55:39;;;;;;;9.75;2.83;;;;;;;14.66;72.42;97036.38;5013363;28;20403;-45
2023/11/05 04:58:04;;;;;;;8.43;2.70;;;;;;;14.68;72.07;97022.22;5013242;28;20545;-46
2023/11/05 05:00:30;;;;;;;10.68;2.63;;;;;;;14.71;72.22;97029.88;5013623;28;20408;-45
2023/11/05 05:02:55;;;;;;;6.82;2.67;;;;;;;14.64;72.30;97033.03;5013636;28;20042;-46
2023/11/05 05:05:20;;;;;;;9.85;2.70;;;;;;;14.62;72.19;97033.13;5013079;28;20037;-45
2023/11/05 05:07:46;;;;;;;8.75;2.85;;;;;;;14.60;72.39;97038.44;5014524;28;20052;-44
2023/11/05 05:10:11;;;;;;;8.60;2.83;;;;;;;14.56;72.48;97036.97;5013976;28;20116;-46
2023/11/05 05:12:36;;;;;;;9.13;2.90;;;;;;;14.48;72.83;97041.84;5011907;28;20423;-46
2023/11/05 05:15:05;;;;;;;8.23;2.55;;;;;;;14.70;72.02;97045.72;5012433;28;20105;-46
2023/11/05 05:17:30;;;;;;;5.72;2.50;;;;;;;14.71;72.06;97044.78;5010551;28;20411;-45
2023/11/05 05:19:56;;;;;;;7.72;2.60;;;;;;;14.72;72.04;97042.06;5012178;28;20037;-49
2023/11/05 05:22:22;;;;;;;6.22;2.58;;;;;;;14.71;71.85;97044.78;5011710;28;20034;-49
2023/11/05 05:24:47;;;;;;;9.50;2.65;;;;;;;14.68;71.89;97047.59;5011961;28;20045;-45
2023/11/05 05:27:12;;;;;;;10.55;2.60;;;;;;;14.56;72.02;97049.22;5012472;28;20053;-44
2023/11/05 05:29:38;;;;;;;8.10;2.80;;;;;;;14.70;72.15;97050.97;5011853;28;20121;-47
2023/11/05 05:32:04;;;;;;;7.38;2.50;;;;;;;14.67;72.28;97054.63;5012250;28;20037;-45
2023/11/05 05:34:30;;;;;;;10.00;2.72;;;;;;;14.72;71.96;97052.53;5011858;28;20042;-47
2023/11/05 05:36:55;;;;;;;10.32;2.70;;;;;;;14.68;72.18;97058.09;5011620;28;20034;-46
2023/11/05 05:39:20;;;;;;;9.93;2.58;;;;;;;14.67;72.27;97057.25;5011157;28;20135;-48
2023/11/05 05:41:46;;;;;;;7.63;2.25;;;;;;;14.72;71.78;97052.53;5011628;28;20041;-45
2023/11/05 05:44:11;;;;;;;7.50;2.50;;;;;;;14.76;71.62;97061.06;5011796;28;20066;-50
2023/11/05 05:46:37;;;;;;;8.98;2.67;;;;;;;14.72;71.96;97059.56;5009923;28;20034;-46
2023/11/05 05:49:02;;;;;;;8.68;2.40;;;;;;;14.68;71.92;97053.69;5011626;28;20077;-45
2023/11/05 05:51:27;;;;;;;6.43;2.28;;;;;;;14.69;71.77;97059.78;5011137;28;20049;-45
2023/11/05 05:53:53;;;;;;;7.47;2.40;;;;;;;14.67;71.90;97059.03;5011699;28;20049;-44
2023/11/05 05:56:18;;;;;;;7.97;2.33;;;;;;;14.73;71.48;97069.13;5011216;28;20030;-45
2023/11/05 05:58:44;;;;;;;8.40;2.20;;;;;;;14.70;71.75;97064.09;5012215;28;20120;-48
2023/11/05 06:01:10;;;;;;;8.10;2.53;;;;;;;14.74;71.88;97065.56;5012037;28;20369;-45
2023/11/05 06:03:35;;;;;;;13.10;2.22;;;;;;;14.75;71.66;97064.63;5011106;28;20065;-44
2023/11/05 06:06:00;;;;;;;7.47;2.20;;;;;;;14.76;71.62;97067.13;5011529;28;20049;-44
2023/11/05 06:08:26;;;;;;;6.93;2.40;;;;;;;14.70;71.83;97067.53;5011214;28;20038;-49
2023/11/05 06:10:51;;;;;;;8.15;2.45;;;;;;;14.61;71.92;97068.13;5011844;28;20041;-45
2023/11/05 06:13:19;;;;;;;7.97;2.25;;;;;;;14.73;71.71;97071.75;5011404;28;20045;-49
2023/11/05 06:15:45;;;;;;;8.52;2.40;;;;;;;14.71;72.05;97081.47;5010350;28;20026;-46
2023/11/05 06:18:10;;;;;;;8.18;2.33;;;;;;;14.77;71.69;97084.56;5012422;28;20052;-45
2023/11/05 06:20:36;;;;;;;8.60;2.40;;;;;;;14.72;71.80;97080.53;5011597;28;20034;-44
2023/11/05 06:23:01;;;;;;;10.52;2.90;;;;;;;14.78;71.49;97094.09;5010569;28;20042;-45
2023/11/05 06:25:27;;;;;;;8.88;2.33;;;;;;;14.89;71.46;97098.66;5011044;28;20037;-47
2023/11/05 06:27:53;;;;;;;10.80;2.10;;;;;;;14.85;71.58;97095.41;5011232;28;20168;-46
2023/11/05 06:30:19;;;;;;;7.80;2.38;;;;;;;14.83;71.74;97097.28;5010379;28;20054;-47
2023/11/05 06:32:45;;;;;;;8.35;2.35;;;;;;;14.93;71.45;97108.03;5012318;28;20072;-44
2023/11/05 06:35:11;;;;;;;6.63;2.17;;;;;;;14.80;71.87;97105.34;5010966;28;20193;-44
2023/11/05 06:37:36;;;;;;;6.90;2.20;;;;;;;14.87;71.67;97114.50;5011116;28;20677;-47
2023/11/05 06:40:03;;;;;;;6.65;2.20;;;;;;;14.86;71.60;97117.22;5010893;28;20123;-44
2023/11/05 06:42:29;;;;;;;10.43;2.10;;;;;;;14.92;71.00;97122.94;5010590;28;20049;-48
2023/11/05 06:44:54;;;;;;;11.10;2.38;;;;;;;14.81;71.78;97121.94;5010847;28;20164;-46
2023/11/05 06:47:19;;;;;;;11.13;2.25;;;;;;;14.80;71.74;97133.34;5009966;28;20042;-50
2023/11/05 06:49:45;;;;;;;7.78;2.20;;;;;;;14.91;71.60;97136.13;5010647;28;20038;-44
2023/11/05 06:52:10;;;;;;;8.02;2.20;;;;;;;14.92;71.50;97132.56;5010732;28;20045;-45
2023/11/05 06:54:36;;;;;;;7.30;2.28;;;;;;;14.90;71.41;97145.78;5010389;28;20038;-46
2023/11/05 06:57:03;;;;;;;8.93;2.47;;;;;;;14.82;71.94;97140.16;5010715;28;20034;-45
2023/11/05 06:59:28;;;;;;;9.85;2.55;;;;;;;14.77;71.88;97144.00;5010101;28;20046;-46
2023/11/05 07:01:54;;;;;;;11.70;2.47;;;;;;;14.84;71.74;97150.56;5010561;28;20089;-45
2023/11/05 07:04:19;;;;;;;8.38;2.22;;;;;;;14.71;72.09;97149.63;5009848;28;20046;-47
2023/11/05 07:06:45;;;;;;;7.25;2.42;;;;;;;14.79;71.96;97158.72;5010411;28;20112;-44
2023/11/05 07:09:12;;;;;;;8.25;2.88;;;;;;;14.76;71.85;97160.72;5012255;28;20080;-49
2023/11/05 07:11:38;;;;;;;10.00;2.33;;;;;;;14.76;72.14;97163.34;5011812;28;20030;-46
2023/11/05 07:14:04;;;;;;;11.95;2.50;;;;;;;14.80;72.04;97167.44;5011048;28;20030;-45
2023/11/05 07:16:29;;;;;;;10.85;2.60;;;;;;;14.86;71.90;97169.66;5009794;28;20030;-46
2023/11/05 07:18:54;;;;;;;11.02;2.63;;;;;;;14.86;71.82;97169.66;5010413;28;20034;-46
2023/11/05 07:21:20;;;;;;;6.78;2.40;;;;;;;14.87;71.58;97173.97;5009808;28;20106;-47
2023/11/05 07:23:47;;;;;;;8.77;2.65;;;;;;;14.74;72.10;97176.53;5010560;28;20496;-46
2023/11/05 07:26:12;;;;;;;8.98;2.80;;;;;;;14.72;72.20;97185.41;5010127;28;20515;-44
2023/11/05 07:28:38;;;;;;;9.88;2.80;;;;;;;14.68;72.63;97187.41;5009988;28;20030;-46
2023/11/05 07:31:04;;;;;;;11.48;3.03;;;;;;;14.48;73.16;97188.59;5010457;28;20057;-45
2023/11/05 07:33:29;;;;;;;11.63;2.90;;;;;;;14.85;71.50;97188.97;5009543;28;20036;-45
2023/11/05 07:35:54;;;;;;;9.95;2.92;;;;;;;14.81;71.43;97196.19;5008896;28;20034;-44
2023/11/05 07:38:21;;;;;;;14.13;2.90;;;;;;;14.85;71.20;97197.69;5009648;28;20471;-48
2023/11/05 07:40:47;;;;;;;9.43;2.83;;;;;;;14.77;71.68;97209.56;5009238;28;20057;-46
2023/11/05 07:43:12;;;;;;;8.95;2.95;;;;;;;14.97;71.37;97207.41;5010324;28;20030;-44
2023/11/05 07:45:38;;;;;;;8.20;2.75;;;;;;;15.05;71.35;97206.09;5009935;28;20034;-49
2023/11/05 07:48:03;;;;;;;9.73;2.92;;;;;;;15.03;71.69;97214.88;5010535;28;20041;-45
2023/11/05 07:50:29;;;;;;;10.98;3.00;;;;;;;15.14;71.51;97224.69;5010116;28;20037;-44
2023/11/05 07:52:54;;;;;;;11.52;3.33;;;;;;;15.21;71.28;97225.16;5009036;28;20045;-47
2023/11/05 07:55:20;;;;;;;11.52;3.00;;;;;;;15.24;71.25;97228.44;5008646;28;20037;-45
2023/11/05 07:57:45;;;;;;;11.45;3.10;;;;;;;15.37;71.32;97226.69;5010959;28;20042;-46
2023/11/05 08:00:15;;;;;;;10.27;2.78;;;;;;;15.31;71.37;97232.34;5010572;28;20081;-47
2023/11/05 08:02:41;;;;;;;9.27;2.95;;;;;;;15.50;71.27;97231.16;5010831;28;20033;-45
2023/11/05 08:05:08;;;;;;;11.30;2.78;;;;;;;15.11;71.51;97234.56;5010233;28;20038;-48
2023/11/05 08:07:33;;;;;;;9.70;2.97;;;;;;;15.57;71.39;97243.00;5010500;28;20137;-46
2023/11/05 08:09:59;;;;;;;9.25;2.90;;;;;;;15.52;70.93;97245.03;5010906;28;20436;-45
2023/11/05 08:12:24;;;;;;;9.73;2.80;;;;;;;15.61;70.55;97255.84;5010824;28;20041;-45
2023/11/05 08:14:50;;;;;;;17.85;8.40;;;;;;;15.86;70.33;97246.38;5011492;28;20045;-46
2023/11/05 08:17:15;;;;;;;10.88;3.40;;;;;;;16.01;69.44;97251.47;5010972;28;20046;-49
2023/11/05 08:19:41;;;;;;;10.80;2.72;;;;;;;15.88;68.70;97257.59;5007532;28;20658;-45
2023/11/05 08:22:06;;;;;;;9.43;3.00;;;;;;;16.00;68.59;97260.28;5009738;28;20046;-45
2023/11/05 08:24:32;;;;;;;11.48;3.08;;;;;;;15.89;68.10;97267.19;5009121;28;20042;-48
2023/11/05 08:26:58;;;;;;;6.18;2.65;;;;;;;16.02;68.12;97274.16;4991668;28;20042;-47
2023/11/05 08:29:24;;;;;;;9.70;2.65;;;;;;;16.11;67.59;97281.44;5008946;28;20041;-45
2023/11/05 08:31:49;;;;;;;8.18;2.60;;;;;;;16.08;67.66;97281.66;5009405;28;20030;-44
2023/11/05 08:34:14;;;;;;;10.90;2.70;;;;;;;16.22;66.94;97283.38;5009344;28;20063;-47
2023/11/05 08:36:40;;;;;;;9.35;2.50;;;;;;;16.21;67.05;97284.31;5008905;28;20583;-49
2023/11/05 08:39:05;;;;;;;8.30;2.63;;;;;;;16.25;66.67;97285.78;5009509;28;20044;-48
2023/11/05 08:41:31;;;;;;;12.30;2.85;;;;;;;16.13;66.43;97292.69;5008931;28;20095;-47
2023/11/05 08:43:57;;;;;;;8.48;2.60;;;;;;;15.95;66.20;97288.63;5008368;28;20037;-44
2023/11/05 08:46:22;;;;;;;10.13;3.10;;;;;;;16.17;66.42;97293.31;5008598;28;20168;-46
2023/11/05 08:48:48;;;;;;;9.68;2.80;;;;;;;16.27;65.92;97290.94;5009471;28;20038;-45
2023/11/05 08:51:13;;;;;;;11.32;3.03;;;;;;;16.18;66.12;97308.16;5009405;28;20034;-46
2023/11/05 08:53:38;;;;;;;11.40;3.22;;;;;;;15.85;67.15;97323.50;5011750;28;20030;-45
2023/11/05 08:56:04;;;;;;;9.60;3.60;;;;;;;15.57;67.99;97327.00;5012264;28;20137;-46
2023/11/05 08:58:29;;;;;;;10.63;3.25;;;;;;;15.89;67.46;97324.97;5012429;28;20034;-44
2023/11/05 09:00:56;;;;;;;9.90;3.22;;;;;;;15.96;67.15;97337.63;5012902;28;20121;-44
2023/11/05 09:03:24;;;;;;;9.10;3.13;;;;;;;15.70;67.53;97344.53;5012156;28;20092;-47
2023/11/05 09:05:50;;;;;;;8.95;3.35;;;;;;;15.59;67.88;97351.41;5012410;28;20038;-48
2023/11/05 09:08:15;;;;;;;18.23;3.55;;;;;;;15.78;67.79;97357.19;5012851;28;20100;-43
2023/11/05 09:10:41;;;;;;;8.93;3.42;;;;;;;15.30;69.99;97359.28;5012135;28;20058;-46
2023/11/05 09:13:06;;;;;;;9.10;3.40;;;;;;;15.74;68.33;97356.50;5012442;28;20039;-45
2023/11/05 09:15:32;;;;;;;10.05;3.50;;;;;;;15.68;68.52;97362.16;5012127;28;20416;-50
2023/11/05 09:17:58;;;;;;;7.82;3.60;;;;;;;15.24;71.01;97367.53;5012245;28;20219;-45
2023/11/05 09:20:23;;;;;;;7.90;3.60;;;;;;;15.43;70.90;97380.34;5012062;28;20041;-45
2023/11/05 09:22:48;;;;;;;8.35;3.50;;;;;;;15.61;70.37;97379.25;5012334;28;20046;-46
2023/11/05 09:25:14;;;;;;;9.35;3.78;;;;;;;15.34;71.06;97378.28;5012615;28;20042;-47
2023/11/05 09:27:39;;;;;;;7.90;3.40;;;;;;;15.40;70.92;97394.50;5011899;28;20037;-43
2023/11/05 09:30:11;;;;;;;9.68;3.80;;;;;;;15.39;71.09;97394.59;5014614;28;20453;-43
2023/11/05 09:32:38;;;;;;;10.18;3.83;;;;;;;15.19;71.93;97402.81;5017629;28;20068;-44
2023/11/05 09:35:04;;;;;;;8.90;3.42;;;;;;;15.38;71.66;97412.13;5018021;28;20034;-44
2023/11/05 09:37:29;;;;;;;11.20;3.47;;;;;;;15.35;71.34;97412.31;5016128;28;20037;-44
2023/11/05 09:39:55;;;;;;;10.40;3.05;;;;;;;14.51;75.71;97426.94;5013744;28;20680;-45
2023/11/05 09:42:22;;;;;;;8.52;2.33;;;;;;;14.29;77.82;97452.63;5012025;28;20045;-45
2023/11/05 09:44:50;;;;;;;6.85;1.63;;;;;;;14.23;78.80;97466.06;5012768;28;20045;-45
2023/11/05 09:47:17;;;;;;;5.43;1.20;;;;;;;14.09;79.15;97458.97;5012011;28;20077;-45
2023/11/05 09:49:42;;;;;;;4.85;1.20;;;;;;;14.32;78.65;97476.06;5012732;28;20034;-44
2023/11/05 09:52:11;;;;;;;7.13;1.30;;;;;;;14.55;77.40;97480.88;5016269;28;20570;-50
2023/11/05 09:54:40;;;;;;;7.15;1.50;;;;;;;14.84;76.44;97483.59;5012305;28;20033;-45
2023/11/05 09:57:07;;;;;;;8.05;1.40;;;;;;;14.57;77.51;97496.53;5011837;28;20064;-46
2023/11/05 09:59:32;;;;;;;6.15;1.60;;;;;;;14.49;77.52;97509.22;5011239;28;20041;-44
2023/11/05 10:01:57;;;;;;;4.63;1.40;;;;;;;14.64;77.67;97520.63;5011868;28;20275;-44
2023/11/05 10:04:23;;;;;;;10.05;1.88;;;;;;;14.38;78.58;97533.41;5010285;28;20034;-47
2023/11/05 10:06:49;;;;;;;7.63;2.20;;;;;;;14.65;77.14;97540.63;5010984;28;20041;-49
2023/11/05 10:09:14;;;;;;;12.75;3.20;;;;;;;14.50;78.47;97542.34;5011640;28;20412;-41
2023/11/05 10:11:43;;;;;;;5.97;2.10;;;;;;;14.87;76.99;97554.25;5011833;28;20030;-44
2023/11/05 10:14:11;;;;;;;11.07;2.33;;;;;;;14.91;76.05;97561.84;5011757;28;20132;-45
2023/11/05 10:16:38;;;;;;;9.55;2.08;;;;;;;14.85;75.13;97564.81;5011055;28;20048;-46
2023/11/05 10:19:04;;;;;;;5.75;1.60;;;;;;;15.05;71.99;97563.69;5011190;28;20038;-47
2023/11/05 10:21:34;;;;;;;6.07;1.77;;;;;;;15.24;70.97;97576.63;5010593;28;20046;-45
2023/11/05 10:23:59;;;;;;;5.47;1.77;;;;;;;15.34;69.84;97578.59;5011263;28;20042;-45
2023/11/05 10:26:28;;;;;;;5.97;1.80;;;;;;;15.19;68.74;97591.75;5011103;28;20034;-49
2023/11/05 10:28:55;;;;;;;4.30;1.80;;;;;;;15.22;69.06;97591.59;5011878;28;20045;-45
2023/11/05 10:31:23;;;;;;;5.15;1.73;;;;;;;15.33;69.45;97597.91;5011226;28;20034;-45
2023/11/05 10:33:50;;;;;;;5.75;1.90;;;;;;;15.75;67.62;97604.22;5010974;28;20042;-45
2023/11/05 10:36:15;;;;;;;5.85;1.90;;;;;;;15.49;68.58;97616.22;5011045;28;20026;-50
2023/11/05 10:38:41;;;;;;;5.57;1.80;;;;;;;15.02;69.24;97611.94;5009476;28;20539;-44
2023/11/05 10:41:10;;;;;;;9.32;1.98;;;;;;;15.57;68.17;97610.56;5011387;28;20084;-45
2023/11/05 10:43:36;;;;;;;4.32;1.92;;;;;;;15.63;67.65;97621.56;5010750;28;20073;-45
2023/11/05 10:46:04;;;;;;;6.18;1.92;;;;;;;16.06;66.24;97626.88;5011256;28;20030;-47
2023/11/05 10:48:29;;;;;;;4.47;2.00;;;;;;;15.73;68.21;97641.13;5010984;28;20096;-44
2023/11/05 10:50:56;;;;;;;4.30;2.13;;;;;;;15.49;70.08;97644.28;5011067;28;20556;-47
2023/11/05 10:53:22;;;;;;;5.70;2.00;;;;;;;15.78;68.74;97648.72;5011061;28;20504;-46
2023/11/05 10:55:49;;;;;;;7.63;2.40;;;;;;;15.41;68.44;97655.22;5011454;28;20115;-45
2023/11/05 10:58:20;;;;;;;9.27;2.58;;;;;;;15.34;69.44;97667.84;5011148;28;20140;-46
2023/11/05 11:00:51;;;;;;;10.40;2.92;;;;;;;15.21;69.73;97673.88;5011144;28;20038;-47
2023/11/05 11:03:18;;;;;;;7.57;2.97;;;;;;;15.37;68.49;97674.69;5011516;28;20563;-47
2023/11/05 11:05:44;;;;;;;7.38;3.00;;;;;;;15.50;68.71;97683.56;5011998;28;20026;-45
2023/11/05 11:08:09;;;;;;;11.05;3.13;;;;;;;15.21;69.98;97685.22;5012951;28;20508;-46
2023/11/05 11:10:40;;;;;;;6.10;3.15;;;;;;;15.56;68.67;97685.00;5011961;28;20121;-47
2023/11/05 11:13:12;;;;;;;7.25;2.95;;;;;;;15.42;68.67;97697.16;5012217;28;20173;-44
2023/11/05 11:15:39;;;;;;;6.78;2.70;;;;;;;15.86;68.17;97695.56;5010106;28;20061;-47
2023/11/05 11:18:07;;;;;;;6.15;2.65;;;;;;;15.73;68.34;97706.78;5010173;28;20029;-45
2023/11/05 11:20:33;;;;;;;6.65;3.08;;;;;;;15.12;70.30;97709.34;5009750;28;20132;-46
2023/11/05 11:23:03;;;;;;;6.95;2.70;;;;;;;15.28;69.35;97717.22;5010356;28;20576;-46
2023/11/05 11:25:29;;;;;;;9.50;3.30;;;;;;;15.45;68.79;97722.34;5009635;28;20034;-46
2023/11/05 11:27:55;;;;;;;5.95;2.70;;;;;;;15.55;68.48;97726.22;5010065;28;20116;-46
2023/11/05 11:30:20;;;;;;;7.15;2.55;;;;;;;15.53;68.88;97729.84;5009676;28;20121;-44